FHA12E LDDU-LIEO
Flight info
| Callsign | FHA12E |
|---|---|
| Flight time | 1h 44m |
| Altitude | 35000 |
| Route | AMUGO1W/11 AMUGO DCT KATTI DCT ESODU DCT ABIDU/N0400F190 Z924 GITRI GITRI2R |
| Aircraft | A320/M-SDE3FGHIRWY/LB1 |
Departure
| Time | 2026-04-28 17:30 |
|---|---|
| Airport | Dubrovnik Ruđer Bošković Airport (LDDU) |
Arrival
| Time | 2026-04-28 19:15 |
|---|---|
| Airport | Olbia Costa Smeralda Airport (LIEO) |
| Time | Latitude | Longitude | Altitude | Speed | Heading |
|---|---|---|---|---|---|
| 2026-04-28 16:58 | 42.56065 | 18.26349 | 534 ft | 0 kts | 208° |
| 2026-04-28 16:58 | 42.56069 | 18.26352 | 534 ft | 0 kts | 208° |
| 2026-04-28 17:18 | 42.56071 | 18.26354 | 534 ft | 2 kts | 208° |
| 2026-04-28 17:18 | 42.56093 | 18.26370 | 534 ft | 2 kts | 208° |
| 2026-04-28 17:19 | 42.56110 | 18.26386 | 534 ft | 4 kts | 242° |
| 2026-04-28 17:19 | 42.56112 | 18.26415 | 534 ft | 3 kts | 298° |
| 2026-04-28 17:19 | 42.56103 | 18.26438 | 534 ft | 0 kts | 298° |
| 2026-04-28 17:24 | 42.56104 | 18.26435 | 534 ft | 2 kts | 298° |
| 2026-04-28 17:24 | 42.56115 | 18.26407 | 534 ft | 5 kts | 298° |
| 2026-04-28 17:24 | 42.56138 | 18.26348 | 534 ft | 9 kts | 298° |
| 2026-04-28 17:25 | 42.56173 | 18.26259 | 534 ft | 13 kts | 298° |
| 2026-04-28 17:25 | 42.56256 | 18.26049 | 534 ft | 15 kts | 298° |
| 2026-04-28 17:25 | 42.56311 | 18.25913 | 534 ft | 18 kts | 298° |
| 2026-04-28 17:26 | 42.56366 | 18.25774 | 534 ft | 18 kts | 298° |
| 2026-04-28 17:26 | 42.56428 | 18.25618 | 534 ft | 16 kts | 298° |
| 2026-04-28 17:26 | 42.56488 | 18.25467 | 534 ft | 20 kts | 298° |
| 2026-04-28 17:26 | 42.56554 | 18.25301 | 534 ft | 18 kts | 299° |
| 2026-04-28 17:27 | 42.56618 | 18.25139 | 534 ft | 21 kts | 298° |
| 2026-04-28 17:27 | 42.56685 | 18.24971 | 534 ft | 20 kts | 298° |
| 2026-04-28 17:27 | 42.56750 | 18.24808 | 534 ft | 15 kts | 298° |
| 2026-04-28 17:27 | 42.56812 | 18.24687 | 534 ft | 17 kts | 329° |
| 2026-04-28 17:28 | 42.56923 | 18.24720 | 533 ft | 19 kts | 47° |
| 2026-04-28 17:28 | 42.56920 | 18.24846 | 533 ft | 0 kts | 117° |
| 2026-04-28 17:29 | 42.56892 | 18.24919 | 533 ft | 36 kts | 118° |
| 2026-04-28 17:30 | 42.56217 | 18.26623 | 534 ft | 156 kts | 118° |
| 2026-04-28 17:30 | 42.55097 | 18.29456 | 1470 ft | 180 kts | 119° |
| 2026-04-28 17:30 | 42.54494 | 18.30999 | 2060 ft | 190 kts | 118° |
| 2026-04-28 17:31 | 42.53858 | 18.32624 | 2551 ft | 203 kts | 120° |
| 2026-04-28 17:31 | 42.51403 | 18.34267 | 3469 ft | 219 kts | 200° |
| 2026-04-28 17:32 | 42.49153 | 18.31571 | 5139 ft | 221 kts | 214° |
| 2026-04-28 17:32 | 42.47769 | 18.30696 | 5947 ft | 224 kts | 200° |
| 2026-04-28 17:32 | 42.46262 | 18.30102 | 6762 ft | 227 kts | 195° |
| 2026-04-28 17:32 | 42.44716 | 18.29585 | 7540 ft | 231 kts | 194° |
| 2026-04-28 17:33 | 42.43140 | 18.29082 | 8317 ft | 234 kts | 194° |
| 2026-04-28 17:33 | 42.41542 | 18.28563 | 9098 ft | 238 kts | 198° |
| 2026-04-28 17:33 | 42.40122 | 18.27421 | 9840 ft | 242 kts | 229° |
| 2026-04-28 17:33 | 42.39515 | 18.26154 | 10280 ft | 247 kts | 249° |
| 2026-04-28 17:34 | 42.39256 | 18.22916 | 10708 ft | 277 kts | 274° |
| 2026-04-28 17:34 | 42.39418 | 18.20202 | 10980 ft | 301 kts | 275° |
| 2026-04-28 17:34 | 42.39607 | 18.17277 | 11205 ft | 324 kts | 275° |
| 2026-04-28 17:34 | 42.39809 | 18.14170 | 11371 ft | 347 kts | 275° |
| 2026-04-28 17:35 | 42.40020 | 18.10837 | 11720 ft | 361 kts | 275° |
| 2026-04-28 17:35 | 42.40231 | 18.07423 | 12365 ft | 366 kts | 275° |
| 2026-04-28 17:35 | 42.40443 | 18.03972 | 13076 ft | 369 kts | 275° |
| 2026-04-28 17:35 | 42.40654 | 18.00500 | 13787 ft | 372 kts | 275° |
| 2026-04-28 17:36 | 42.40866 | 17.96997 | 14419 ft | 375 kts | 275° |
| 2026-04-28 17:36 | 42.41078 | 17.93471 | 15030 ft | 377 kts | 275° |
| 2026-04-28 17:36 | 42.41290 | 17.89924 | 15638 ft | 379 kts | 275° |
| 2026-04-28 17:36 | 42.41498 | 17.86402 | 16214 ft | 382 kts | 275° |
| 2026-04-28 17:37 | 42.41709 | 17.82810 | 16812 ft | 385 kts | 275° |
| 2026-04-28 17:37 | 42.41919 | 17.79189 | 17418 ft | 387 kts | 275° |
| 2026-04-28 17:37 | 42.42130 | 17.75547 | 18027 ft | 390 kts | 275° |
| 2026-04-28 17:37 | 42.42343 | 17.71878 | 18609 ft | 392 kts | 275° |
| 2026-04-28 17:38 | 42.42557 | 17.68184 | 19158 ft | 395 kts | 275° |
| 2026-04-28 17:38 | 42.42771 | 17.64474 | 19748 ft | 395 kts | 275° |
| 2026-04-28 17:38 | 42.42978 | 17.60814 | 20623 ft | 388 kts | 275° |
| 2026-04-28 17:38 | 42.43184 | 17.57170 | 21255 ft | 388 kts | 275° |
| 2026-04-28 17:39 | 42.43387 | 17.53567 | 21785 ft | 390 kts | 275° |
| 2026-04-28 17:39 | 42.43593 | 17.49896 | 22288 ft | 392 kts | 275° |
| 2026-04-28 17:39 | 42.44004 | 17.42458 | 23166 ft | 400 kts | 275° |
| 2026-04-28 17:40 | 42.44211 | 17.38693 | 23631 ft | 403 kts | 275° |
| 2026-04-28 17:40 | 42.44419 | 17.34896 | 24028 ft | 405 kts | 275° |
| 2026-04-28 17:40 | 42.44626 | 17.31078 | 24427 ft | 408 kts | 275° |
| 2026-04-28 17:40 | 42.44836 | 17.27243 | 24823 ft | 409 kts | 275° |
| 2026-04-28 17:41 | 42.45046 | 17.23391 | 25213 ft | 411 kts | 275° |
| 2026-04-28 17:41 | 42.45251 | 17.19571 | 25594 ft | 413 kts | 275° |
| 2026-04-28 17:41 | 42.45458 | 17.15681 | 25977 ft | 415 kts | 275° |
| 2026-04-28 17:41 | 42.45663 | 17.11772 | 26370 ft | 417 kts | 275° |
| 2026-04-28 17:42 | 42.45871 | 17.07839 | 26765 ft | 419 kts | 275° |
| 2026-04-28 17:42 | 42.46008 | 17.05231 | 27026 ft | 421 kts | 275° |
| 2026-04-28 17:42 | 42.46285 | 16.99926 | 27534 ft | 424 kts | 275° |
| 2026-04-28 17:42 | 42.46492 | 16.95935 | 27912 ft | 426 kts | 275° |
| 2026-04-28 17:43 | 42.46696 | 16.91927 | 28289 ft | 428 kts | 275° |
| 2026-04-28 17:43 | 42.46894 | 16.87951 | 28653 ft | 430 kts | 275° |
| 2026-04-28 17:43 | 42.47093 | 16.83911 | 29021 ft | 432 kts | 275° |
| 2026-04-28 17:43 | 42.47294 | 16.79851 | 29492 ft | 431 kts | 275° |
| 2026-04-28 17:44 | 42.47496 | 16.75809 | 30050 ft | 429 kts | 275° |
| 2026-04-28 17:44 | 42.47694 | 16.71779 | 30542 ft | 427 kts | 275° |
| 2026-04-28 17:44 | 42.47889 | 16.67771 | 31012 ft | 426 kts | 275° |
| 2026-04-28 17:44 | 42.48083 | 16.63784 | 31482 ft | 424 kts | 275° |
| 2026-04-28 17:45 | 42.48277 | 16.59804 | 31964 ft | 422 kts | 275° |
| 2026-04-28 17:45 | 42.48470 | 16.55846 | 32457 ft | 420 kts | 275° |
| 2026-04-28 17:45 | 42.48658 | 16.51898 | 32953 ft | 419 kts | 275° |
| 2026-04-28 17:45 | 42.48839 | 16.48031 | 33443 ft | 417 kts | 275° |
| 2026-04-28 17:46 | 42.49021 | 16.44122 | 33936 ft | 415 kts | 275° |
| 2026-04-28 17:46 | 42.49200 | 16.40225 | 34388 ft | 413 kts | 275° |
| 2026-04-28 17:46 | 42.49376 | 16.36348 | 34801 ft | 412 kts | 275° |
| 2026-04-28 17:46 | 42.49553 | 16.32473 | 35006 ft | 412 kts | 275° |
| 2026-04-28 17:47 | 42.49730 | 16.28587 | 35046 ft | 415 kts | 275° |
| 2026-04-28 17:47 | 42.50084 | 16.20750 | 35047 ft | 417 kts | 275° |
| 2026-04-28 17:48 | 42.50428 | 16.12958 | 35051 ft | 417 kts | 275° |
| 2026-04-28 17:48 | 42.50754 | 16.05105 | 35052 ft | 418 kts | 272° |
| 2026-04-28 17:49 | 42.50544 | 15.97226 | 35025 ft | 419 kts | 270° |
| 2026-04-28 17:49 | 42.50298 | 15.89333 | 35026 ft | 420 kts | 270° |
| 2026-04-28 17:50 | 42.50044 | 15.81472 | 35042 ft | 421 kts | 269° |
| 2026-04-28 17:50 | 42.49785 | 15.73544 | 35045 ft | 421 kts | 270° |
| 2026-04-28 17:51 | 42.49519 | 15.65610 | 35050 ft | 422 kts | 269° |
| 2026-04-28 17:51 | 42.49247 | 15.57675 | 35045 ft | 422 kts | 269° |
| 2026-04-28 17:52 | 42.48973 | 15.49787 | 35046 ft | 422 kts | 269° |
| 2026-04-28 17:52 | 42.48548 | 15.37869 | 35050 ft | 422 kts | 269° |
| 2026-04-28 17:53 | 42.48261 | 15.29925 | 35051 ft | 422 kts | 269° |
| 2026-04-28 17:53 | 42.47968 | 15.21974 | 35046 ft | 422 kts | 269° |
| 2026-04-28 17:54 | 42.47668 | 15.14078 | 35045 ft | 423 kts | 269° |
| 2026-04-28 17:54 | 42.47363 | 15.06134 | 35046 ft | 423 kts | 269° |
| 2026-04-28 17:55 | 42.47049 | 14.98185 | 35046 ft | 423 kts | 269° |
| 2026-04-28 17:55 | 42.46733 | 14.90290 | 35043 ft | 423 kts | 268° |
| 2026-04-28 17:56 | 42.46408 | 14.82344 | 35044 ft | 423 kts | 268° |
| 2026-04-28 17:56 | 42.46078 | 14.74396 | 35033 ft | 423 kts | 268° |
| 2026-04-28 17:57 | 42.45739 | 14.66437 | 35035 ft | 424 kts | 268° |
| 2026-04-28 17:57 | 42.45399 | 14.58477 | 35046 ft | 424 kts | 268° |
| 2026-04-28 17:58 | 42.45060 | 14.50553 | 35055 ft | 424 kts | 268° |
| 2026-04-28 17:58 | 42.44708 | 14.42585 | 35063 ft | 424 kts | 268° |
| 2026-04-28 17:59 | 42.44201 | 14.34624 | 35068 ft | 426 kts | 261° |
| 2026-04-28 17:59 | 42.42201 | 14.27055 | 35070 ft | 430 kts | 248° |
| 2026-04-28 18:00 | 42.39684 | 14.19766 | 35065 ft | 430 kts | 248° |
| 2026-04-28 18:00 | 42.37154 | 14.12427 | 35073 ft | 430 kts | 248° |
| 2026-04-28 18:01 | 42.34633 | 14.05091 | 35045 ft | 430 kts | 248° |
| 2026-04-28 18:01 | 42.32105 | 13.97758 | 35043 ft | 431 kts | 248° |
| 2026-04-28 18:02 | 42.29577 | 13.90484 | 35048 ft | 431 kts | 248° |
| 2026-04-28 18:02 | 42.27029 | 13.83162 | 35055 ft | 431 kts | 247° |
| 2026-04-28 18:03 | 42.24478 | 13.75844 | 35067 ft | 431 kts | 247° |
| 2026-04-28 18:03 | 42.21929 | 13.68544 | 35062 ft | 427 kts | 247° |
| 2026-04-28 18:04 | 42.19395 | 13.61316 | 35055 ft | 424 kts | 247° |
| 2026-04-28 18:04 | 42.16893 | 13.54207 | 35075 ft | 423 kts | 247° |
| 2026-04-28 18:05 | 42.14802 | 13.48257 | 35080 ft | 422 kts | 247° |
| 2026-04-28 18:05 | 42.11865 | 13.39924 | 35080 ft | 420 kts | 247° |
| 2026-04-28 18:06 | 42.09348 | 13.32833 | 35083 ft | 419 kts | 247° |
| 2026-04-28 18:06 | 42.06851 | 13.25808 | 35079 ft | 419 kts | 247° |
| 2026-04-28 18:07 | 42.04350 | 13.18770 | 35074 ft | 418 kts | 247° |
| 2026-04-28 18:07 | 42.01838 | 13.11715 | 35064 ft | 418 kts | 247° |
| 2026-04-28 18:08 | 41.99317 | 13.04665 | 35063 ft | 418 kts | 246° |
| 2026-04-28 18:08 | 41.96894 | 12.97912 | 35064 ft | 418 kts | 246° |
| 2026-04-28 18:09 | 41.94383 | 12.90920 | 35063 ft | 418 kts | 246° |
| 2026-04-28 18:09 | 41.91868 | 12.83950 | 35066 ft | 418 kts | 246° |
| 2026-04-28 18:10 | 41.89413 | 12.77174 | 35060 ft | 418 kts | 246° |
| 2026-04-28 18:10 | 41.86805 | 12.69976 | 35061 ft | 418 kts | 246° |
| 2026-04-28 18:11 | 41.84270 | 12.62967 | 35064 ft | 418 kts | 246° |
| 2026-04-28 18:11 | 41.81682 | 12.55985 | 35065 ft | 418 kts | 245° |
| 2026-04-28 18:12 | 41.78947 | 12.49158 | 35067 ft | 419 kts | 244° |
| 2026-04-28 18:12 | 41.76139 | 12.42317 | 35069 ft | 419 kts | 244° |
| 2026-04-28 18:13 | 41.73346 | 12.35464 | 35059 ft | 419 kts | 244° |
| 2026-04-28 18:13 | 41.71036 | 12.29763 | 35063 ft | 419 kts | 244° |
| 2026-04-28 18:14 | 41.68258 | 12.22916 | 35065 ft | 419 kts | 244° |
| 2026-04-28 18:14 | 41.65036 | 12.14999 | 35109 ft | 419 kts | 244° |
| 2026-04-28 18:15 | 41.62708 | 12.09280 | 35082 ft | 413 kts | 244° |
| 2026-04-28 18:15 | 41.61372 | 12.06012 | 35072 ft | 399 kts | 244° |
| 2026-04-28 18:15 | 41.59634 | 12.01762 | 35060 ft | 380 kts | 246° |
| 2026-04-28 18:16 | 41.58982 | 11.99642 | 35060 ft | 368 kts | 257° |
| 2026-04-28 18:16 | 41.58653 | 11.96322 | 35062 ft | 358 kts | 274° |
| 2026-04-28 18:16 | 41.59064 | 11.93073 | 35062 ft | 355 kts | 289° |
| 2026-04-28 18:16 | 41.60151 | 11.90117 | 35062 ft | 356 kts | 304° |
| 2026-04-28 18:17 | 41.61827 | 11.87685 | 35062 ft | 359 kts | 320° |
| 2026-04-28 18:17 | 41.63985 | 11.85980 | 35062 ft | 364 kts | 336° |
| 2026-04-28 18:17 | 41.66457 | 11.85185 | 35066 ft | 371 kts | 353° |
| 2026-04-28 18:17 | 41.69047 | 11.85413 | 35077 ft | 378 kts | 10° |
| 2026-04-28 18:18 | 41.71479 | 11.86687 | 35092 ft | 386 kts | 28° |
| 2026-04-28 18:18 | 41.73556 | 11.88996 | 35097 ft | 393 kts | 47° |
| 2026-04-28 18:18 | 41.76008 | 11.94094 | 35111 ft | 398 kts | 58° |
| 2026-04-28 18:19 | 41.78990 | 12.01813 | 35147 ft | 400 kts | 61° |
| 2026-04-28 18:19 | 41.80643 | 12.08550 | 35155 ft | 405 kts | 88° |
| 2026-04-28 18:20 | 41.80338 | 12.12235 | 35153 ft | 405 kts | 107° |
| 2026-04-28 18:20 | 41.79162 | 12.15635 | 35142 ft | 402 kts | 128° |
| 2026-04-28 18:20 | 41.77243 | 12.18308 | 35130 ft | 397 kts | 148° |
| 2026-04-28 18:20 | 41.74821 | 12.19989 | 35016 ft | 390 kts | 167° |
| 2026-04-28 18:21 | 41.72189 | 12.20557 | 35018 ft | 381 kts | 186° |
| 2026-04-28 18:21 | 41.69603 | 12.20031 | 35020 ft | 373 kts | 203° |
| 2026-04-28 18:21 | 41.67308 | 12.18524 | 35071 ft | 365 kts | 220° |
| 2026-04-28 18:21 | 41.65490 | 12.16223 | 35064 ft | 359 kts | 237° |
| 2026-04-28 18:22 | 41.62906 | 12.10554 | 35053 ft | 358 kts | 245° |
| 2026-04-28 18:22 | 41.60661 | 12.04652 | 35043 ft | 359 kts | 246° |
| 2026-04-28 18:23 | 41.58864 | 11.98489 | 35032 ft | 354 kts | 266° |
| 2026-04-28 18:23 | 41.58965 | 11.95229 | 35034 ft | 352 kts | 283° |
| 2026-04-28 18:23 | 41.59825 | 11.92186 | 35034 ft | 352 kts | 301° |
| 2026-04-28 18:24 | 41.61381 | 11.89671 | 35034 ft | 354 kts | 319° |
| 2026-04-28 18:24 | 41.62724 | 11.88432 | 35033 ft | 357 kts | 330° |
| 2026-04-28 18:24 | 41.65913 | 11.87270 | 35038 ft | 366 kts | 356° |
| 2026-04-28 18:24 | 41.68454 | 11.87733 | 35048 ft | 375 kts | 15° |
| 2026-04-28 18:25 | 41.70772 | 11.89364 | 35059 ft | 383 kts | 36° |
| 2026-04-28 18:25 | 41.72562 | 11.92050 | 35104 ft | 394 kts | 56° |
| 2026-04-28 18:26 | 41.76517 | 12.01783 | 35141 ft | 401 kts | 60° |
| 2026-04-28 18:26 | 41.78274 | 12.08672 | 35152 ft | 405 kts | 89° |
| 2026-04-28 18:26 | 41.77834 | 12.12385 | 35156 ft | 406 kts | 112° |
| 2026-04-28 18:27 | 41.76447 | 12.15575 | 35149 ft | 402 kts | 135° |
| 2026-04-28 18:27 | 41.74274 | 12.17860 | 35128 ft | 395 kts | 158° |
| 2026-04-28 18:27 | 41.71687 | 12.18901 | 35040 ft | 385 kts | 180° |
| 2026-04-28 18:27 | 41.69066 | 12.18649 | 35090 ft | 374 kts | 200° |
| 2026-04-28 18:28 | 41.66737 | 12.17244 | 35076 ft | 365 kts | 220° |
| 2026-04-28 18:28 | 41.64936 | 12.14932 | 35064 ft | 357 kts | 238° |
| 2026-04-28 18:28 | 41.63617 | 12.12131 | 35058 ft | 356 kts | 243° |
| 2026-04-28 18:29 | 41.61284 | 12.06286 | 35046 ft | 358 kts | 246° |
| 2026-04-28 18:29 | 41.59156 | 12.00325 | 35028 ft | 356 kts | 256° |
| 2026-04-28 18:29 | 41.58815 | 11.97086 | 35031 ft | 352 kts | 274° |
| 2026-04-28 18:30 | 41.59254 | 11.93894 | 35030 ft | 350 kts | 291° |
| 2026-04-28 18:30 | 41.59952 | 11.91961 | 35030 ft | 351 kts | 302° |
| 2026-04-28 18:30 | 41.62252 | 11.88877 | 35031 ft | 355 kts | 327° |
| 2026-04-28 18:30 | 41.64542 | 11.87607 | 35032 ft | 361 kts | 345° |
| 2026-04-28 18:31 | 41.67068 | 11.87435 | 35044 ft | 369 kts | 5° |
| 2026-04-28 18:31 | 41.69538 | 11.88456 | 35053 ft | 378 kts | 25° |
| 2026-04-28 18:31 | 41.71609 | 11.90588 | 35094 ft | 389 kts | 46° |
| 2026-04-28 18:31 | 41.73145 | 11.93614 | 35117 ft | 397 kts | 57° |
| 2026-04-28 18:32 | 41.74493 | 11.96848 | 35123 ft | 399 kts | 59° |
| 2026-04-28 18:32 | 41.77015 | 12.03415 | 35145 ft | 400 kts | 60° |
| 2026-04-28 18:32 | 41.78013 | 12.06896 | 35148 ft | 403 kts | 79° |
| 2026-04-28 18:33 | 41.78081 | 12.10484 | 35154 ft | 405 kts | 100° |
| 2026-04-28 18:33 | 41.77170 | 12.13974 | 35153 ft | 404 kts | 123° |
| 2026-04-28 18:33 | 41.75348 | 12.16782 | 35135 ft | 398 kts | 147° |
| 2026-04-28 18:33 | 41.72928 | 12.18456 | 35116 ft | 389 kts | 169° |
| 2026-04-28 18:34 | 41.70292 | 12.18839 | 35032 ft | 378 kts | 190° |
| 2026-04-28 18:34 | 41.67785 | 12.17987 | 35080 ft | 368 kts | 210° |
| 2026-04-28 18:34 | 41.65700 | 12.16105 | 35067 ft | 360 kts | 229° |
| 2026-04-28 18:34 | 41.64202 | 12.13472 | 35062 ft | 355 kts | 242° |
| 2026-04-28 18:35 | 41.62969 | 12.10618 | 35054 ft | 355 kts | 244° |
| 2026-04-28 18:35 | 41.60694 | 12.04731 | 35043 ft | 358 kts | 246° |
| 2026-04-28 18:36 | 41.58879 | 11.98651 | 35030 ft | 353 kts | 265° |
| 2026-04-28 18:36 | 41.58949 | 11.95399 | 35033 ft | 351 kts | 283° |
| 2026-04-28 18:36 | 41.59785 | 11.92358 | 35034 ft | 350 kts | 300° |
| 2026-04-28 18:36 | 41.61320 | 11.89837 | 35034 ft | 353 kts | 318° |
| 2026-04-28 18:37 | 41.63416 | 11.88113 | 35033 ft | 358 kts | 336° |
| 2026-04-28 18:37 | 41.65862 | 11.87403 | 35038 ft | 365 kts | 356° |
| 2026-04-28 18:37 | 41.68362 | 11.87849 | 35047 ft | 373 kts | 15° |
| 2026-04-28 18:37 | 41.70675 | 11.89472 | 35058 ft | 382 kts | 36° |
| 2026-04-28 18:38 | 41.72455 | 11.92151 | 35104 ft | 393 kts | 56° |
| 2026-04-28 18:38 | 41.75134 | 11.98549 | 35129 ft | 399 kts | 60° |
| 2026-04-28 18:39 | 41.77610 | 12.05211 | 35158 ft | 401 kts | 68° |
| 2026-04-28 18:39 | 41.78143 | 12.08706 | 35152 ft | 404 kts | 90° |
| 2026-04-28 18:39 | 41.77689 | 12.12403 | 35155 ft | 404 kts | 112° |
| 2026-04-28 18:39 | 41.76279 | 12.15560 | 35148 ft | 401 kts | 136° |
| 2026-04-28 18:40 | 41.74094 | 12.17800 | 35128 ft | 394 kts | 159° |
| 2026-04-28 18:40 | 41.71508 | 12.18797 | 35042 ft | 384 kts | 180° |
| 2026-04-28 18:40 | 41.68899 | 12.18506 | 35093 ft | 373 kts | 201° |
| 2026-04-28 18:40 | 41.66591 | 12.17061 | 35076 ft | 363 kts | 221° |
| 2026-04-28 18:41 | 41.64826 | 12.14719 | 35064 ft | 355 kts | 239° |
| 2026-04-28 18:41 | 41.62335 | 12.09024 | 35051 ft | 355 kts | 245° |
| 2026-04-28 18:42 | 41.60083 | 12.03124 | 35036 ft | 357 kts | 246° |
| 2026-04-28 18:42 | 41.57885 | 11.97123 | 35063 ft | 370 kts | 247° |
| 2026-04-28 18:43 | 41.55657 | 11.90751 | 35062 ft | 389 kts | 247° |
| 2026-04-28 18:43 | 41.53283 | 11.84072 | 35062 ft | 407 kts | 246° |
| 2026-04-28 18:44 | 41.50803 | 11.77185 | 35064 ft | 415 kts | 246° |
| 2026-04-28 18:44 | 41.47039 | 11.66820 | 35061 ft | 416 kts | 246° |
| 2026-04-28 18:45 | 41.44513 | 11.59888 | 35061 ft | 415 kts | 246° |
| 2026-04-28 18:45 | 41.41991 | 11.52962 | 35061 ft | 415 kts | 246° |
| 2026-04-28 18:46 | 41.39461 | 11.46039 | 35031 ft | 417 kts | 246° |
| 2026-04-28 18:46 | 41.36924 | 11.39093 | 34066 ft | 428 kts | 246° |
| 2026-04-28 18:47 | 41.35608 | 11.35500 | 33109 ft | 434 kts | 246° |
| 2026-04-28 18:47 | 41.34284 | 11.31896 | 32373 ft | 433 kts | 246° |
| 2026-04-28 18:47 | 41.32981 | 11.28353 | 31837 ft | 418 kts | 246° |
| 2026-04-28 18:47 | 41.31729 | 11.24952 | 31369 ft | 401 kts | 245° |
| 2026-04-28 18:48 | 41.30522 | 11.21678 | 30899 ft | 387 kts | 245° |
| 2026-04-28 18:48 | 41.29352 | 11.18515 | 30476 ft | 377 kts | 245° |
| 2026-04-28 18:48 | 41.28199 | 11.15387 | 30018 ft | 376 kts | 245° |
| 2026-04-28 18:48 | 41.27051 | 11.12273 | 29555 ft | 374 kts | 245° |
| 2026-04-28 18:49 | 41.25920 | 11.09224 | 29139 ft | 372 kts | 245° |
| 2026-04-28 18:49 | 41.25148 | 11.07148 | 28864 ft | 370 kts | 245° |
| 2026-04-28 18:49 | 41.23645 | 11.03108 | 28328 ft | 366 kts | 245° |
| 2026-04-28 18:49 | 41.22523 | 11.00088 | 27927 ft | 363 kts | 245° |
| 2026-04-28 18:50 | 41.21408 | 10.97088 | 27544 ft | 360 kts | 245° |
| 2026-04-28 18:50 | 41.20305 | 10.94117 | 27168 ft | 357 kts | 245° |
| 2026-04-28 18:50 | 41.19209 | 10.91169 | 26795 ft | 354 kts | 245° |
| 2026-04-28 18:50 | 41.18119 | 10.88246 | 26427 ft | 351 kts | 245° |
| 2026-04-28 18:51 | 41.17039 | 10.85352 | 26064 ft | 349 kts | 245° |
| 2026-04-28 18:51 | 41.15966 | 10.82473 | 25690 ft | 347 kts | 245° |
| 2026-04-28 18:51 | 41.14910 | 10.79644 | 25318 ft | 346 kts | 245° |
| 2026-04-28 18:51 | 41.13844 | 10.76794 | 24945 ft | 345 kts | 245° |
| 2026-04-28 18:52 | 41.12777 | 10.73948 | 24553 ft | 343 kts | 245° |
| 2026-04-28 18:52 | 41.11714 | 10.71121 | 24164 ft | 342 kts | 244° |
| 2026-04-28 18:52 | 41.10654 | 10.68298 | 23771 ft | 342 kts | 244° |
| 2026-04-28 18:52 | 41.09594 | 10.65478 | 23329 ft | 341 kts | 244° |
| 2026-04-28 18:53 | 41.08538 | 10.62670 | 22911 ft | 339 kts | 244° |
| 2026-04-28 18:53 | 41.07490 | 10.59887 | 22501 ft | 337 kts | 244° |
| 2026-04-28 18:53 | 41.06448 | 10.57117 | 22069 ft | 335 kts | 244° |
| 2026-04-28 18:53 | 41.05423 | 10.54399 | 21679 ft | 333 kts | 244° |
| 2026-04-28 18:54 | 41.04388 | 10.51659 | 21269 ft | 332 kts | 244° |
| 2026-04-28 18:54 | 41.03355 | 10.48937 | 20866 ft | 330 kts | 244° |
| 2026-04-28 18:54 | 41.02326 | 10.46224 | 20453 ft | 329 kts | 244° |
| 2026-04-28 18:54 | 41.01301 | 10.43519 | 20043 ft | 328 kts | 244° |
| 2026-04-28 18:55 | 41.00280 | 10.40827 | 19634 ft | 327 kts | 243° |
| 2026-04-28 18:55 | 40.99605 | 10.39045 | 19362 ft | 327 kts | 243° |
| 2026-04-28 18:55 | 40.98368 | 10.35363 | 18928 ft | 331 kts | 249° |
| 2026-04-28 18:55 | 40.97550 | 10.32496 | 18610 ft | 334 kts | 249° |
| 2026-04-28 18:56 | 40.96738 | 10.29661 | 18333 ft | 335 kts | 249° |
| 2026-04-28 18:56 | 40.95913 | 10.26792 | 18024 ft | 333 kts | 249° |
| 2026-04-28 18:56 | 40.95091 | 10.23935 | 17744 ft | 331 kts | 249° |
| 2026-04-28 18:56 | 40.94272 | 10.21095 | 17467 ft | 329 kts | 249° |
| 2026-04-28 18:57 | 40.93472 | 10.18263 | 17191 ft | 328 kts | 252° |
| 2026-04-28 18:57 | 40.93029 | 10.15315 | 16920 ft | 328 kts | 265° |
| 2026-04-28 18:57 | 40.93098 | 10.12304 | 16644 ft | 328 kts | 276° |
| 2026-04-28 18:57 | 40.93411 | 10.09335 | 16366 ft | 326 kts | 276° |
| 2026-04-28 18:58 | 40.93715 | 10.06366 | 16091 ft | 325 kts | 276° |
| 2026-04-28 18:58 | 40.94009 | 10.03421 | 15819 ft | 322 kts | 276° |
| 2026-04-28 18:58 | 40.94295 | 10.00530 | 15558 ft | 321 kts | 276° |
| 2026-04-28 18:58 | 40.94584 | 9.97605 | 15278 ft | 321 kts | 276° |
| 2026-04-28 18:59 | 40.94870 | 9.94682 | 14964 ft | 320 kts | 276° |
| 2026-04-28 18:59 | 40.94962 | 9.91748 | 14480 ft | 320 kts | 264° |
| 2026-04-28 18:59 | 40.94515 | 9.88889 | 14116 ft | 316 kts | 250° |
| 2026-04-28 18:59 | 40.93574 | 9.86289 | 13741 ft | 313 kts | 237° |
| 2026-04-28 19:00 | 40.92348 | 9.83933 | 13355 ft | 310 kts | 235° |
| 2026-04-28 19:00 | 40.91128 | 9.81597 | 12966 ft | 307 kts | 235° |
| 2026-04-28 19:00 | 40.89924 | 9.79280 | 12578 ft | 304 kts | 235° |
| 2026-04-28 19:00 | 40.88770 | 9.77057 | 12275 ft | 289 kts | 235° |
| 2026-04-28 19:01 | 40.87653 | 9.74904 | 12024 ft | 273 kts | 235° |
| 2026-04-28 19:01 | 40.86615 | 9.72907 | 11787 ft | 265 kts | 235° |
| 2026-04-28 19:01 | 40.85575 | 9.70910 | 11530 ft | 262 kts | 235° |
| 2026-04-28 19:01 | 40.84545 | 9.68934 | 11283 ft | 260 kts | 235° |
| 2026-04-28 19:02 | 40.83521 | 9.66977 | 11070 ft | 259 kts | 235° |
| 2026-04-28 19:02 | 40.82490 | 9.65009 | 10994 ft | 259 kts | 235° |
| 2026-04-28 19:02 | 40.81469 | 9.63056 | 10999 ft | 259 kts | 235° |
| 2026-04-28 19:02 | 40.80442 | 9.61093 | 10857 ft | 260 kts | 235° |
| 2026-04-28 19:03 | 40.79425 | 9.59147 | 10620 ft | 256 kts | 235° |
| 2026-04-28 19:03 | 40.78414 | 9.57216 | 10382 ft | 256 kts | 235° |
| 2026-04-28 19:03 | 40.77419 | 9.55315 | 10170 ft | 255 kts | 235° |
| 2026-04-28 19:03 | 40.76414 | 9.53395 | 9923 ft | 256 kts | 235° |
| 2026-04-28 19:04 | 40.75399 | 9.51454 | 9521 ft | 256 kts | 235° |
| 2026-04-28 19:04 | 40.74399 | 9.49545 | 9132 ft | 250 kts | 235° |
| 2026-04-28 19:04 | 40.73418 | 9.47678 | 8740 ft | 246 kts | 235° |
| 2026-04-28 19:04 | 40.72440 | 9.45819 | 8447 ft | 248 kts | 235° |
| 2026-04-28 19:05 | 40.71448 | 9.43941 | 8203 ft | 250 kts | 235° |
| 2026-04-28 19:05 | 40.70455 | 9.42060 | 7950 ft | 249 kts | 235° |
| 2026-04-28 19:05 | 40.69482 | 9.40210 | 7703 ft | 249 kts | 235° |
| 2026-04-28 19:05 | 40.68501 | 9.38343 | 7448 ft | 247 kts | 235° |
| 2026-04-28 19:06 | 40.67522 | 9.36486 | 7211 ft | 246 kts | 235° |
| 2026-04-28 19:06 | 40.66863 | 9.35239 | 7041 ft | 245 kts | 235° |
| 2026-04-28 19:06 | 40.65577 | 9.32807 | 6717 ft | 243 kts | 235° |
| 2026-04-28 19:06 | 40.64616 | 9.30990 | 6498 ft | 240 kts | 235° |
| 2026-04-28 19:07 | 40.63681 | 9.29193 | 6375 ft | 242 kts | 239° |
| 2026-04-28 19:07 | 40.63161 | 9.27016 | 6247 ft | 253 kts | 267° |
| 2026-04-28 19:07 | 40.63538 | 9.24810 | 6129 ft | 247 kts | 297° |
| 2026-04-28 19:07 | 40.64673 | 9.23163 | 6012 ft | 243 kts | 320° |
| 2026-04-28 19:08 | 40.66027 | 9.21882 | 6020 ft | 244 kts | 323° |
| 2026-04-28 19:08 | 40.67548 | 9.20907 | 6012 ft | 245 kts | 345° |
| 2026-04-28 19:08 | 40.69252 | 9.20887 | 6004 ft | 250 kts | 12° |
| 2026-04-28 19:08 | 40.70926 | 9.21531 | 5783 ft | 249 kts | 16° |
| 2026-04-28 19:09 | 40.72549 | 9.22216 | 5718 ft | 242 kts | 17° |
| 2026-04-28 19:09 | 40.74109 | 9.23011 | 5609 ft | 240 kts | 29° |
| 2026-04-28 19:09 | 40.75411 | 9.24362 | 5455 ft | 240 kts | 49° |
| 2026-04-28 19:09 | 40.76398 | 9.26136 | 5132 ft | 240 kts | 56° |
| 2026-04-28 19:10 | 40.77353 | 9.27957 | 4773 ft | 242 kts | 56° |
| 2026-04-28 19:10 | 40.78316 | 9.29786 | 4397 ft | 243 kts | 56° |
| 2026-04-28 19:10 | 40.79267 | 9.31589 | 4020 ft | 241 kts | 56° |
| 2026-04-28 19:10 | 40.80212 | 9.33381 | 3659 ft | 234 kts | 56° |
| 2026-04-28 19:11 | 40.81123 | 9.35112 | 3312 ft | 226 kts | 56° |
| 2026-04-28 19:11 | 40.81988 | 9.36754 | 2974 ft | 209 kts | 56° |
| 2026-04-28 19:11 | 40.82788 | 9.38273 | 2675 ft | 194 kts | 56° |
| 2026-04-28 19:11 | 40.83534 | 9.39692 | 2369 ft | 183 kts | 56° |
| 2026-04-28 19:12 | 40.84228 | 9.41012 | 2092 ft | 168 kts | 57° |
| 2026-04-28 19:12 | 40.84868 | 9.42229 | 1833 ft | 155 kts | 57° |
| 2026-04-28 19:12 | 40.85456 | 9.43348 | 1608 ft | 144 kts | 57° |
| 2026-04-28 19:12 | 40.86010 | 9.44405 | 1391 ft | 138 kts | 57° |
| 2026-04-28 19:13 | 40.86554 | 9.45442 | 1177 ft | 136 kts | 57° |
| 2026-04-28 19:13 | 40.87091 | 9.46465 | 969 ft | 135 kts | 58° |
| 2026-04-28 19:13 | 40.87620 | 9.47473 | 759 ft | 132 kts | 58° |
| 2026-04-28 19:13 | 40.88142 | 9.48469 | 568 ft | 131 kts | 59° |
| 2026-04-28 19:14 | 40.88660 | 9.49459 | 365 ft | 132 kts | 56° |
| 2026-04-28 19:14 | 40.89188 | 9.50452 | 175 ft | 131 kts | 60° |
| 2026-04-28 19:14 | 40.89683 | 9.51420 | 33 ft | 113 kts | 55° |
| 2026-04-28 19:14 | 40.90035 | 9.52087 | 34 ft | 64 kts | 55° |
| 2026-04-28 19:15 | 40.90227 | 9.52451 | 35 ft | 45 kts | 54° |
| 2026-04-28 19:15 | 40.90375 | 9.52686 | 34 ft | 19 kts | 17° |
| 2026-04-28 19:15 | 40.90448 | 9.52652 | 34 ft | 12 kts | 296° |
| 2026-04-28 19:15 | 40.90452 | 9.52596 | 34 ft | 7 kts | 272° |
| 2026-04-28 19:16 | 40.90445 | 9.52490 | 32 ft | 11 kts | 250° |
| 2026-04-28 19:16 | 40.90402 | 9.52396 | 34 ft | 13 kts | 234° |
| 2026-04-28 19:16 | 40.90343 | 9.52283 | 34 ft | 16 kts | 236° |
| 2026-04-28 19:16 | 40.90271 | 9.52147 | 34 ft | 20 kts | 235° |
| 2026-04-28 19:17 | 40.90186 | 9.51987 | 34 ft | 23 kts | 235° |
| 2026-04-28 19:17 | 40.90093 | 9.51806 | 34 ft | 24 kts | 234° |
| 2026-04-28 19:17 | 40.90011 | 9.51653 | 34 ft | 20 kts | 233° |
| 2026-04-28 19:17 | 40.89975 | 9.51574 | 34 ft | 9 kts | 253° |
| 2026-04-28 19:18 | 40.90012 | 9.51510 | 34 ft | 11 kts | 328° |
| 2026-04-28 19:18 | 40.90070 | 9.51481 | 34 ft | 8 kts | 21° |
| 2026-04-28 19:18 | 40.90112 | 9.51553 | 34 ft | 12 kts | 55° |
| 2026-04-28 19:18 | 40.90153 | 9.51615 | 34 ft | 7 kts | 17° |
| 2026-04-28 19:19 | 40.90190 | 9.51583 | 34 ft | 6 kts | 326° |
| 2026-04-28 19:19 | 40.90202 | 9.51573 | 34 ft | 0 kts | 327° |